createdAt,value
2023-04-22T00:00:48.091Z,75.60
2023-04-22T00:03:16.180Z,75.70
2023-04-22T00:05:45.499Z,75.50
2023-04-22T00:08:13.312Z,75.70
2023-04-22T00:10:41.141Z,75.70
2023-04-22T00:13:08.937Z,75.60
2023-04-22T00:15:36.725Z,76.20
2023-04-22T00:18:04.715Z,75.90
2023-04-22T00:20:32.849Z,75.90
2023-04-22T00:23:01.977Z,75.60
2023-04-22T00:25:29.752Z,75.70
2023-04-22T00:27:57.541Z,75.70
2023-04-22T00:30:25.480Z,75.50
2023-04-22T00:32:54.006Z,75.70
2023-04-22T00:35:21.825Z,75.70
2023-04-22T00:37:49.795Z,76.50
2023-04-22T00:40:18.991Z,76.20
2023-04-22T00:42:50.250Z,76.40
2023-04-22T00:45:18.773Z,76.60
2023-04-22T00:47:46.699Z,76.70
2023-04-22T00:50:15.059Z,76.80
2023-04-22T00:52:42.964Z,76.70
2023-04-22T00:55:11.909Z,76.60
2023-04-22T00:57:41.893Z,76.80
2023-04-22T01:00:10.825Z,76.90
2023-04-22T01:02:39.144Z,77.00
2023-04-22T01:05:09.450Z,77.20
2023-04-22T01:07:37.420Z,77.20
2023-04-22T01:10:06.218Z,77.40
2023-04-22T01:12:34.155Z,77.50
2023-04-22T01:15:04.872Z,77.60
2023-04-22T01:17:33.666Z,77.90
2023-04-22T01:20:03.890Z,78.10
2023-04-22T01:22:36.699Z,78.30
2023-04-22T01:25:06.761Z,78.40
2023-04-22T01:27:36.059Z,78.80
2023-04-22T01:30:04.370Z,78.40
2023-04-22T01:32:32.764Z,78.00
2023-04-22T01:35:00.899Z,77.90
2023-04-22T01:37:29.934Z,77.90
2023-04-22T01:39:59.480Z,77.80
2023-04-22T01:42:29.094Z,77.60
2023-04-22T01:44:59.637Z,77.80
2023-04-22T01:47:28.012Z,77.60
2023-04-22T01:49:55.865Z,77.60
2023-04-22T01:52:23.900Z,77.20
2023-04-22T01:54:52.454Z,77.50
2023-04-22T01:57:20.294Z,77.30
2023-04-22T01:59:49.461Z,77.10
2023-04-22T02:02:17.392Z,77.10
2023-04-22T02:04:45.276Z,76.80
2023-04-22T02:07:13.159Z,76.90
2023-04-22T02:09:41.285Z,76.80
2023-04-22T02:12:09.270Z,76.80
2023-04-22T02:14:37.098Z,77.10
2023-04-22T02:17:31.297Z,76.90
2023-04-22T02:19:59.353Z,77.10
2023-04-22T02:22:29.193Z,76.80
2023-04-22T02:24:57.029Z,76.70
2023-04-22T02:27:24.968Z,76.80
2023-04-22T02:29:53.273Z,76.90
2023-04-22T02:32:21.117Z,77.00
2023-04-22T02:34:50.650Z,77.40
2023-04-22T02:37:19.037Z,77.40
2023-04-22T02:39:46.837Z,77.30
2023-04-22T02:42:14.598Z,77.20
2023-04-22T02:44:42.381Z,77.20
2023-04-22T02:47:10.584Z,76.90
2023-04-22T02:49:38.622Z,76.90
2023-04-22T02:52:08.123Z,77.00
2023-04-22T02:54:35.986Z,77.20
2023-04-22T02:57:03.934Z,77.10
2023-04-22T02:59:32.279Z,77.30
2023-04-22T03:02:00.601Z,77.30
2023-04-22T03:04:42.325Z,77.80
2023-04-22T03:07:11.788Z,77.20
2023-04-22T03:09:39.741Z,77.20
2023-04-22T03:12:07.875Z,77.40
2023-04-22T03:14:37.213Z,77.10
2023-04-22T03:17:05.310Z,76.90
2023-04-22T03:19:33.188Z,76.80
2023-04-22T03:22:01.027Z,76.80
2023-04-22T03:24:30.154Z,76.60
2023-04-22T03:26:58.281Z,76.50
2023-04-22T03:29:26.222Z,76.60
2023-04-22T03:31:54.351Z,76.70
2023-04-22T03:34:22.191Z,76.70
2023-04-22T03:36:50.698Z,76.50
2023-04-22T03:39:19.092Z,76.70
2023-04-22T03:41:48.760Z,76.60
2023-04-22T03:44:17.194Z,76.80
2023-04-22T03:46:46.266Z,76.90
2023-04-22T03:49:27.632Z,76.70
2023-04-22T03:51:56.768Z,76.80
2023-04-22T03:54:26.253Z,76.80
2023-04-22T03:56:55.454Z,76.80
2023-04-22T03:59:24.442Z,76.70
2023-04-22T04:01:53.477Z,76.70
2023-04-22T04:04:24.665Z,76.80
2023-04-22T04:06:57.763Z,76.90
2023-04-22T04:09:25.977Z,78.10
2023-04-22T04:11:56.601Z,77.20
2023-04-22T04:14:24.736Z,77.00
2023-04-22T04:16:53.298Z,77.00
2023-04-22T04:19:33.371Z,76.90
2023-04-22T04:22:02.078Z,76.90
2023-04-22T04:24:36.504Z,76.70
2023-04-22T04:27:12.447Z,76.70
2023-04-22T04:29:47.798Z,76.80
2023-04-22T04:32:22.212Z,77.20
2023-04-22T04:34:50.685Z,77.00
2023-04-22T04:37:18.951Z,76.80
2023-04-22T04:39:59.217Z,77.30
2023-04-22T04:42:34.740Z,76.60
2023-04-22T04:45:08.005Z,76.60
2023-04-22T04:47:37.196Z,76.50
2023-04-22T04:50:15.556Z,76.40
2023-04-22T04:52:44.710Z,76.40
2023-04-22T04:55:12.521Z,76.50
2023-04-22T04:57:42.137Z,76.50
2023-04-22T05:00:13.859Z,76.30
2023-04-22T05:02:42.807Z,76.30
2023-04-22T05:05:12.112Z,76.20
2023-04-22T05:07:42.780Z,76.30
2023-04-22T05:10:12.249Z,76.10
2023-04-22T05:12:41.744Z,76.00
2023-04-22T05:15:14.115Z,76.00
2023-04-22T05:17:42.580Z,75.70
2023-04-22T05:20:11.112Z,75.50
2023-04-22T05:22:41.604Z,75.50
2023-04-22T05:25:11.087Z,75.70
2023-04-22T05:27:45.829Z,75.50
2023-04-22T05:30:15.383Z,75.40
2023-04-22T05:32:43.291Z,75.30
2023-04-22T05:35:12.062Z,75.30
2023-04-22T05:37:40.491Z,75.10
2023-04-22T05:40:09.535Z,75.00
2023-04-22T05:42:37.346Z,75.20
2023-04-22T05:45:07.782Z,75.20
2023-04-22T05:47:38.058Z,75.10
2023-04-22T05:50:07.621Z,75.10
2023-04-22T05:52:42.347Z,75.00
2023-04-22T05:55:15.770Z,74.80
2023-04-22T05:57:45.006Z,76.10
2023-04-22T06:00:26.902Z,74.90
2023-04-22T06:03:10.584Z,74.70
2023-04-22T06:05:38.548Z,74.50
2023-04-22T06:08:06.560Z,74.00
2023-04-22T06:10:36.473Z,74.10
2023-04-22T06:13:04.345Z,73.80
2023-04-22T06:15:35.973Z,73.80
2023-04-22T06:18:03.865Z,73.90
2023-04-22T06:20:32.569Z,73.90
2023-04-22T06:23:00.366Z,73.70
2023-04-22T06:25:28.204Z,73.60
2023-04-22T06:27:56.123Z,73.60
2023-04-22T06:30:24.214Z,73.50
2023-04-22T06:32:55.321Z,73.60
2023-04-22T06:35:23.374Z,73.60
2023-04-22T06:37:52.294Z,73.90
2023-04-22T06:40:20.968Z,74.10
2023-04-22T06:43:11.508Z,74.20
2023-04-22T06:45:58.078Z,75.00
2023-04-22T06:48:43.026Z,74.70
2023-04-22T06:51:35.229Z,74.40
2023-04-22T06:54:03.410Z,74.10
2023-04-22T06:56:31.512Z,74.10
2023-04-22T06:58:59.334Z,73.70
2023-04-22T07:01:27.196Z,73.60
2023-04-22T07:03:56.659Z,73.40
2023-04-22T07:06:25.132Z,73.20
2023-04-22T07:08:53.081Z,72.60
2023-04-22T07:11:21.276Z,72.80
2023-04-22T07:14:04.526Z,72.70
2023-04-22T07:16:32.390Z,72.50
2023-04-22T07:19:01.617Z,72.90
2023-04-22T07:21:29.360Z,72.90
2023-04-22T07:23:57.136Z,73.00
2023-04-22T07:26:24.995Z,72.60
2023-04-22T07:28:52.962Z,71.90
2023-04-22T07:31:20.762Z,71.80
2023-04-22T07:33:48.637Z,71.30
2023-04-22T07:36:17.784Z,71.10
2023-04-22T07:38:45.600Z,70.80
2023-04-22T07:41:13.574Z,70.50
2023-04-22T07:43:41.369Z,70.00
2023-04-22T07:46:09.209Z,68.80
2023-04-22T07:48:37.444Z,68.60
2023-04-22T07:51:05.668Z,67.70
2023-04-22T07:53:34.852Z,67.50
2023-04-22T07:56:03.000Z,67.50
2023-04-22T07:58:30.792Z,67.60
2023-04-22T08:00:58.582Z,68.20
2023-04-22T08:03:26.949Z,68.60
2023-04-22T08:05:56.625Z,68.40
2023-04-22T08:08:24.425Z,68.50
2023-04-22T08:10:53.526Z,68.00
2023-04-22T08:13:21.319Z,68.30
2023-04-22T08:15:49.135Z,67.90
2023-04-22T08:18:16.964Z,65.20
2023-04-22T08:20:44.747Z,65.20
2023-04-22T08:23:12.544Z,62.90
2023-04-22T08:25:40.429Z,61.90
2023-04-22T08:28:09.607Z,61.90
2023-04-22T08:30:37.381Z,62.40
2023-04-22T08:33:05.339Z,61.80
2023-04-22T08:35:35.001Z,61.30
2023-04-22T08:38:03.032Z,60.50
2023-04-22T08:40:30.969Z,59.80
2023-04-22T08:42:58.860Z,59.90
2023-04-22T08:45:28.230Z,59.70
2023-04-22T08:47:56.859Z,59.20
2023-04-22T08:50:25.274Z,60.00
2023-04-22T08:52:53.140Z,59.70
2023-04-22T08:55:21.235Z,59.00
2023-04-22T09:02:20.638Z,58.40
2023-04-22T09:04:50.770Z,57.60
2023-04-22T09:07:23.737Z,58.10
2023-04-22T09:09:52.079Z,58.70
2023-04-22T09:12:19.939Z,58.60
2023-04-22T09:14:47.742Z,58.60
2023-04-22T09:17:18.552Z,59.00
2023-04-22T09:19:46.730Z,59.10
2023-04-22T09:22:16.181Z,59.70
2023-04-22T09:24:45.905Z,59.30
2023-04-22T09:27:13.730Z,58.90
2023-04-22T09:29:49.611Z,57.40
2023-04-22T09:32:18.844Z,57.10
2023-04-22T09:34:50.227Z,56.40
2023-04-22T09:37:21.388Z,56.40
2023-04-22T09:39:49.908Z,55.40
2023-04-22T09:42:17.836Z,55.20
2023-04-22T09:44:47.722Z,55.00
2023-04-22T09:47:15.556Z,56.30
2023-04-22T09:49:49.314Z,56.90
2023-04-22T09:52:26.700Z,56.80
2023-04-22T09:54:55.232Z,56.50
2023-04-22T09:57:23.256Z,57.00
2023-04-22T09:59:52.876Z,57.20
2023-04-22T10:02:29.232Z,57.00
2023-04-22T10:04:59.254Z,56.90
2023-04-22T10:07:31.467Z,56.70
2023-04-22T10:09:59.901Z,56.00
2023-04-22T10:12:35.228Z,55.80
2023-04-22T10:15:04.233Z,56.10
2023-04-22T10:17:35.063Z,56.20
2023-04-22T10:20:08.176Z,55.80
2023-04-22T10:22:36.662Z,56.00
2023-04-22T10:25:04.886Z,55.00
2023-04-22T10:27:33.667Z,54.50
2023-04-22T10:30:02.133Z,54.50
2023-04-22T10:32:30.813Z,55.00
2023-04-22T10:35:12.276Z,55.00
2023-04-22T10:37:43.400Z,54.80
2023-04-22T10:40:16.071Z,53.80
2023-04-22T10:42:49.171Z,53.60
2023-04-22T10:45:17.447Z,52.80
2023-04-22T10:47:45.533Z,54.90
2023-04-22T10:50:21.075Z,53.80
2023-04-22T10:52:51.448Z,54.10
2023-04-22T10:55:19.955Z,54.50
2023-04-22T10:57:49.852Z,53.80
2023-04-22T11:00:53.560Z,54.40
2023-04-22T11:03:28.460Z,54.20
2023-04-22T11:06:17.116Z,54.30
2023-04-22T11:08:49.208Z,54.30
2023-04-22T11:11:18.863Z,54.50
2023-04-22T11:13:50.486Z,54.20
2023-04-22T11:16:22.473Z,54.30
2023-04-22T11:18:50.820Z,55.80
2023-04-22T11:21:21.437Z,56.20
2023-04-22T11:23:52.585Z,56.40
2023-04-22T11:26:33.551Z,54.60
2023-04-22T11:29:01.434Z,56.70
2023-04-22T11:31:29.275Z,55.80
2023-04-22T11:33:59.962Z,54.40
2023-04-22T11:36:29.178Z,53.20
2023-04-22T11:38:57.509Z,53.90
2023-04-22T11:41:25.285Z,55.00
2023-04-22T11:43:54.651Z,54.40
2023-04-22T11:46:29.958Z,53.40
2023-04-22T11:49:12.858Z,53.20
2023-04-22T11:51:54.598Z,54.80
2023-04-22T11:54:32.401Z,53.40
2023-04-22T11:57:03.151Z,53.40
2023-04-22T11:59:43.231Z,54.50
2023-04-22T12:06:06.012Z,54.70
2023-04-22T12:08:50.012Z,54.10
2023-04-22T12:11:38.973Z,53.40
2023-04-22T12:14:07.678Z,53.20
2023-04-22T12:16:41.658Z,54.20
2023-04-22T12:19:09.980Z,53.10
2023-04-22T12:21:37.744Z,52.70
2023-04-22T12:24:10.420Z,53.60
2023-04-22T12:26:38.637Z,54.10
2023-04-22T12:29:06.466Z,54.80
2023-04-22T12:31:34.567Z,54.20
2023-04-22T12:34:02.628Z,54.50
2023-04-22T12:36:32.307Z,55.50
2023-04-22T12:39:00.164Z,54.20
2023-04-22T12:41:29.256Z,54.10
2023-04-22T12:43:57.037Z,54.20
2023-04-22T12:46:24.862Z,55.30
2023-04-22T12:48:52.625Z,54.80
2023-04-22T12:51:20.446Z,54.80
2023-04-22T12:53:48.301Z,54.40
2023-04-22T12:56:16.340Z,54.40
2023-04-22T12:58:45.541Z,54.20
2023-04-22T13:01:13.377Z,55.90
2023-04-22T13:03:41.386Z,56.80
2023-04-22T13:06:09.272Z,58.10
2023-04-22T13:08:37.069Z,58.70
2023-04-22T13:11:04.886Z,57.20
2023-04-22T13:13:32.690Z,56.80
2023-04-22T13:16:02.476Z,56.40
2023-04-22T13:18:30.618Z,56.70
2023-04-22T13:20:58.413Z,56.70
2023-04-22T13:23:26.930Z,56.30
2023-04-22T13:25:55.099Z,55.90
2023-04-22T13:28:22.930Z,56.70
2023-04-22T13:30:50.739Z,56.90
2023-04-22T13:33:19.886Z,57.90
2023-04-22T13:35:47.715Z,57.20
2023-04-22T13:38:15.496Z,58.90
2023-04-22T13:40:43.297Z,60.00
2023-04-22T13:43:11.158Z,60.10
2023-04-22T13:45:40.108Z,57.70
2023-04-22T13:48:07.924Z,57.10
2023-04-22T13:50:37.041Z,58.10
2023-04-22T13:53:04.935Z,57.40
2023-04-22T13:55:32.803Z,58.00
2023-04-22T13:58:01.077Z,57.80
2023-04-22T14:00:29.136Z,57.40
2023-04-22T14:02:57.024Z,57.60
2023-04-22T14:05:24.960Z,58.50
2023-04-22T14:07:54.346Z,57.50
2023-04-22T14:10:22.269Z,58.00
2023-04-22T14:12:50.654Z,57.70
2023-04-22T14:15:18.573Z,58.00
2023-04-22T14:17:49.152Z,57.90
2023-04-22T14:20:17.062Z,57.50
2023-04-22T14:22:44.816Z,57.60
2023-04-22T14:25:14.199Z,57.30
2023-04-22T14:27:41.981Z,57.10
2023-04-22T14:30:10.499Z,57.20
2023-04-22T14:32:38.367Z,57.30
2023-04-22T14:35:07.035Z,57.20
2023-04-22T14:37:35.643Z,57.50
2023-04-22T14:40:04.184Z,57.80
2023-04-22T14:42:33.348Z,58.20
2023-04-22T14:45:01.428Z,58.80
2023-04-22T14:47:29.799Z,58.80
2023-04-22T14:49:57.626Z,59.30
2023-04-22T14:52:25.593Z,58.60
2023-04-22T14:54:53.554Z,58.80
2023-04-22T14:57:21.335Z,59.00
2023-04-22T14:59:50.447Z,58.30
2023-04-22T15:02:18.407Z,58.90
2023-04-22T15:04:46.418Z,58.50
2023-04-22T15:07:14.246Z,58.10
2023-04-22T15:09:42.216Z,58.80
2023-04-22T15:12:10.809Z,58.40
2023-04-22T15:14:39.123Z,59.10
2023-04-22T15:17:08.305Z,58.90
2023-04-22T15:19:36.488Z,59.10
2023-04-22T15:22:04.300Z,59.70
2023-04-22T15:24:32.141Z,59.40
2023-04-22T15:27:00.524Z,60.00
2023-04-22T15:29:28.469Z,59.10
2023-04-22T15:31:56.617Z,59.70
2023-04-22T15:34:26.079Z,60.30
2023-04-22T15:36:54.200Z,60.10
2023-04-22T15:39:22.062Z,60.60
2023-04-22T15:41:49.977Z,60.20
2023-04-22T15:44:17.857Z,61.10
2023-04-22T15:46:46.776Z,60.10
2023-04-22T15:49:15.530Z,60.50
2023-04-22T15:51:44.822Z,62.50
2023-04-22T15:54:13.281Z,63.30
2023-04-22T15:56:41.326Z,63.80
2023-04-22T15:59:09.172Z,63.70
2023-04-22T16:01:40.321Z,64.30
2023-04-22T16:04:08.713Z,64.80
2023-04-22T16:06:37.994Z,64.90
2023-04-22T16:09:07.160Z,65.40
2023-04-22T16:11:34.963Z,65.70
2023-04-22T16:14:02.791Z,66.20
2023-04-22T16:16:30.876Z,66.40
2023-04-22T16:18:59.612Z,66.80
2023-04-22T16:21:32.613Z,66.90
2023-04-22T16:24:00.819Z,67.20
2023-04-22T16:26:29.974Z,67.10
2023-04-22T16:28:57.808Z,67.10
2023-04-22T16:31:25.772Z,67.30
2023-04-22T16:33:53.614Z,67.40
2023-04-22T16:36:21.445Z,67.60
2023-04-22T16:38:49.242Z,67.90
2023-04-22T16:41:17.040Z,67.90
2023-04-22T16:43:46.570Z,68.00
2023-04-22T16:46:14.396Z,68.10
2023-04-22T16:48:42.270Z,68.30
2023-04-22T16:51:10.209Z,68.10
2023-04-22T16:53:38.329Z,68.30
2023-04-22T16:56:06.538Z,68.50
2023-04-22T16:58:34.311Z,68.80
2023-04-22T17:01:04.066Z,69.20
2023-04-22T17:03:32.415Z,68.90
2023-04-22T17:06:00.263Z,68.70
2023-04-22T17:08:28.063Z,68.50
2023-04-22T17:10:55.842Z,68.70
2023-04-22T17:13:23.664Z,68.60
2023-04-22T17:15:51.785Z,69.00
2023-04-22T17:18:20.926Z,68.70
2023-04-22T17:20:49.016Z,69.00
2023-04-22T17:23:17.297Z,69.40
2023-04-22T17:25:46.847Z,69.80
2023-04-22T17:28:14.638Z,69.90
2023-04-22T17:30:42.454Z,70.20
2023-04-22T17:33:10.574Z,70.10
2023-04-22T17:35:39.802Z,70.30
2023-04-22T17:38:07.610Z,70.30
2023-04-22T17:40:35.482Z,70.40
2023-04-22T17:43:03.269Z,70.60
2023-04-22T17:45:31.046Z,70.60
2023-04-22T17:47:58.877Z,70.70
2023-04-22T17:50:26.737Z,70.70
2023-04-22T17:52:55.932Z,70.90
2023-04-22T17:55:23.705Z,71.10
2023-04-22T17:57:51.458Z,71.20
2023-04-22T18:00:19.418Z,71.70
2023-04-22T18:02:47.577Z,71.70
2023-04-22T18:05:15.575Z,71.70
2023-04-22T18:07:43.332Z,72.00
2023-04-22T18:10:13.380Z,72.00
2023-04-22T18:12:41.679Z,72.20
2023-04-22T18:15:09.835Z,72.60
2023-04-22T18:17:37.759Z,72.80
2023-04-22T18:20:17.479Z,73.30
2023-04-22T18:22:47.217Z,73.20
2023-04-22T18:25:16.796Z,73.70
2023-04-22T18:27:44.756Z,73.80
2023-04-22T18:30:12.870Z,73.90
2023-04-22T18:32:40.716Z,73.60
2023-04-22T18:35:09.488Z,73.80
2023-04-22T18:37:37.285Z,73.90
2023-04-22T18:40:06.300Z,73.90
2023-04-22T18:42:35.612Z,74.00
2023-04-22T18:45:04.769Z,74.00
2023-04-22T18:47:33.474Z,74.20
2023-04-22T18:50:01.349Z,74.40
2023-04-22T18:52:29.176Z,74.80
2023-04-22T18:54:56.982Z,74.90
2023-04-22T18:57:24.800Z,75.20
2023-04-22T18:59:54.916Z,75.20
2023-04-22T19:02:22.905Z,75.50
2023-04-22T19:04:51.014Z,75.80
2023-04-22T19:07:18.876Z,76.10
2023-04-22T19:09:46.682Z,75.40
2023-04-22T19:12:16.464Z,75.80
2023-04-22T19:14:44.308Z,76.00
2023-04-22T19:17:13.465Z,75.90
2023-04-22T19:19:41.432Z,76.20
2023-04-22T19:22:09.615Z,76.30
2023-04-22T19:24:39.389Z,76.30
2023-04-22T19:27:12.253Z,76.50
2023-04-22T19:29:42.913Z,77.60
2023-04-22T19:32:12.748Z,77.30
2023-04-22T19:34:40.657Z,77.60
2023-04-22T19:37:08.546Z,77.60
2023-04-22T19:39:36.534Z,77.50
2023-04-22T19:42:04.489Z,77.60
2023-04-22T19:44:32.296Z,77.60
2023-04-22T19:47:00.236Z,77.40
2023-04-22T19:49:31.186Z,77.80
2023-04-22T19:51:59.577Z,77.50
2023-04-22T19:54:30.206Z,77.50
2023-04-22T19:56:58.864Z,78.10
2023-04-22T19:59:30.932Z,78.00
2023-04-22T20:01:59.341Z,78.10
2023-04-22T20:04:29.377Z,78.20
2023-04-22T20:07:00.321Z,78.00
2023-04-22T20:09:32.640Z,78.80
2023-04-22T20:12:01.147Z,78.90
2023-04-22T20:14:29.412Z,78.80
2023-04-22T20:16:57.495Z,78.70
2023-04-22T20:19:25.504Z,78.60
2023-04-22T20:21:56.608Z,79.30
2023-04-22T20:24:25.530Z,79.00
2023-04-22T20:26:53.570Z,79.10
2023-04-22T20:29:22.839Z,79.10
2023-04-22T20:31:51.102Z,79.10
2023-04-22T20:34:19.161Z,78.90
2023-04-22T20:36:49.333Z,79.20
2023-04-22T20:39:18.809Z,79.40
2023-04-22T20:41:48.810Z,79.70
2023-04-22T20:44:16.564Z,80.30
2023-04-22T20:46:44.343Z,80.00
2023-04-22T20:49:12.091Z,80.10
2023-04-22T20:51:40.464Z,79.80
2023-04-22T20:54:17.810Z,80.20
2023-04-22T20:56:58.814Z,80.40
2023-04-22T20:59:26.596Z,80.00
2023-04-22T21:01:55.026Z,79.60
2023-04-22T21:04:24.043Z,80.20
2023-04-22T21:06:53.232Z,79.70
2023-04-22T21:09:21.600Z,79.40
2023-04-22T21:11:49.920Z,79.30
2023-04-22T21:14:20.954Z,79.10
2023-04-22T21:16:56.037Z,79.00
2023-04-22T21:19:24.434Z,79.00
2023-04-22T21:21:53.659Z,79.50
2023-04-22T21:24:22.630Z,79.40
2023-04-22T21:26:50.761Z,79.30
2023-04-22T21:29:20.589Z,79.80
2023-04-22T21:32:01.123Z,79.00
2023-04-22T21:34:35.470Z,79.20
2023-04-22T21:37:03.436Z,78.90
2023-04-22T21:39:31.254Z,78.60
2023-04-22T21:41:59.180Z,79.00
2023-04-22T21:44:28.274Z,77.70
2023-04-22T21:46:56.038Z,77.90
2023-04-22T21:49:23.858Z,78.00
2023-04-22T21:51:51.712Z,78.70
2023-04-22T21:54:19.484Z,77.40
2023-04-22T21:56:47.301Z,77.50
2023-04-22T21:59:15.329Z,77.60
2023-04-22T22:01:44.489Z,77.50
2023-04-22T22:04:15.462Z,76.20
2023-04-22T22:06:44.380Z,76.70
2023-04-22T22:09:12.351Z,77.00
2023-04-22T22:11:40.151Z,76.30
2023-04-22T22:14:08.227Z,76.60
2023-04-22T22:16:38.169Z,77.40
2023-04-22T22:19:07.357Z,77.70
2023-04-22T22:21:35.181Z,77.50
2023-04-22T22:24:03.044Z,77.60
2023-04-22T22:26:30.984Z,76.60
2023-04-22T22:28:58.752Z,76.90
2023-04-22T22:31:26.610Z,76.70
2023-04-22T22:33:54.414Z,76.20
2023-04-22T22:36:23.667Z,76.70
2023-04-22T22:38:51.468Z,76.40
2023-04-22T22:41:19.246Z,76.40
2023-04-22T22:43:47.007Z,76.30
2023-04-22T22:46:14.872Z,76.80
2023-04-22T22:48:42.724Z,76.90
2023-04-22T22:51:14.200Z,76.60
2023-04-22T22:53:44.605Z,76.90
2023-04-22T22:56:14.456Z,77.30
2023-04-22T22:58:42.229Z,76.70
2023-04-22T23:01:10.228Z,77.40
2023-04-22T23:03:38.267Z,77.70
2023-04-22T23:06:07.322Z,76.50
2023-04-22T23:08:35.168Z,77.20
2023-04-22T23:11:04.347Z,77.40
2023-04-22T23:13:32.109Z,77.10
2023-04-22T23:16:00.546Z,77.20
2023-04-22T23:18:29.682Z,77.40
2023-04-22T23:21:00.056Z,77.90
2023-04-22T23:23:29.937Z,77.70
2023-04-22T23:26:00.519Z,78.30
2023-04-22T23:28:30.394Z,78.10
2023-04-22T23:30:58.574Z,78.40
2023-04-22T23:33:26.979Z,78.10
2023-04-22T23:35:56.487Z,79.00
2023-04-22T23:38:24.420Z,78.00
2023-04-22T23:40:52.200Z,78.90
2023-04-22T23:43:19.972Z,77.60
2023-04-22T23:45:49.228Z,78.70
2023-04-22T23:48:17.095Z,79.70
2023-04-22T23:50:44.872Z,78.60
2023-04-22T23:53:12.665Z,78.10
2023-04-22T23:55:41.071Z,78.30
2023-04-22T23:58:09.143Z,78.20
